SBBRSBFN

Guest
Details From SBBR - Brasilia Presidente Juscelino Kubitsch
To SBFN - Fernando De Noronha
Flight Number -
Tags decoded
Created
Modified
Stats Distance 1,190 nm / 2,204 km
Max Altitude 0 ft / 0 m
Waypoints 4
Social Downloads 1
Likes 0
Share VATSIM

Download

Looking for another format? Having issues loading an existing format? Contact us
Advertisement - Login to hide

Notes

Requested: SBBR ORATE UZ59 REC W41 FNR SBFN Unmatched points: UZ59 FNR

Route

SBBR ORATE REC SBFN

ID Type Via Altitude Latitude Longitude Leg Dist Tot Dist Heading (true) Name
O SBBR APT - 0 ft / 0 m -15.87110˚ -47.91863˚ - 0 nm - Brasilia Presidente Juscelino Kubitsch
ORATE FIX - 0 ft / 0 m -15.11083˚ -46.64383˚ 86 nm 86 nm 58° / 58° -
REC VOR - 0 ft / 0 m -8.13659˚ -34.92730˚ 806 nm 892 nm 60° / 58° RECIFE VOR-DME
O SBFN APT - 0 ft / 0 m -3.85493˚ -32.42333˚ 297 nm 1190 nm 30° / 30° Fernando De Noronha

Altitude Profile

Advertisement - Login to hide

Weather


0- 5 10 15 20 25 30 35+ Temperature / ° C

Clouds and Precipitation
Forecast for 2017-12-11 06:00 UTC. Updated an hour ago

Ground ~20,000 ft ~40,000 ft Winds

SBBR

Details ICAO SBBR (BSB)
Name Brasilia Presidente Juscelino Kubitsch
Region Brazil
Timezone America/Sao_Paulo (UTC-2.0)
Stats Elevation 3,479 ft / 1,060 m (AMSL)
Location -15.871101° -47.918626°
Runways 2
Magnetic Variation 21.548° W

METAR

SBBR 110400Z 33006KT 9999 FEW015 BKN100 19/18 Q1012

Decode

TAF

TAF SBBR 102200Z 1100/1124 30007KT 9000 NSC TN20/1108Z TX26/1116Z PROB30 1104/1106 TS BKN015 FEW035CB PROB30 1110/1112 BKN008 BECMG 1114/1115 BKN020 BECMG 1116/1117 23007KT BKN020 FEW035TCU PROB30 TEMPO 1119/1122 TSRA SCT020 FEW035CB RMK PCZ

Decode

Departure Runways

ID Width Length Bearing (true) Bearing (mag) Surface Threshold Offset Overrun Length
11L 148 ft / 45 m 10,493 ft / 3,198 m 86.35° 107.90° Asphalt 0 ft / 0 m 200 ft / 61 m
11R 148 ft / 45 m 10,839 ft / 3,304 m 86.00° 107.55° Asphalt 2,635 ft / 803 m 200 ft / 61 m
29L 148 ft / 45 m 10,839 ft / 3,304 m 265.99° 287.54° Asphalt 0 ft / 0 m 200 ft / 61 m
29R 148 ft / 45 m 10,493 ft / 3,198 m 266.34° 287.89° Asphalt 0 ft / 0 m 200 ft / 61 m

SBFN

Details ICAO SBFN (FEN)
Name Fernando De Noronha
Region Brazil
Timezone America/Noronha (UTC-2.0)
Stats Elevation 180 ft / 55 m (AMSL)
Location -3.854928° -32.423335°
Runways 1
Magnetic Variation 20.050° W

METAR

Not found

TAF

TAF SBFN 102200Z 1100/1112 09010KT 9999 SCT017 TN26/1108Z TX28/1111Z RMK PEU

Decode

Destination Runways

ID Width Length Bearing (true) Bearing (mag) Surface Threshold Offset Overrun Length
12 148 ft / 45 m 6,070 ft / 1,850 m 93.99° 114.04° Asphalt 0 ft / 0 m 0 ft / 0 m
30 148 ft / 45 m 6,070 ft / 1,850 m 273.98° 294.03° Asphalt 0 ft / 0 m 0 ft / 0 m

Popular Alternatives